Time;durP1;ratioP1;P1;durP2;ratioP2;P2;SDS_P1;SDS_P2;PMS_P1;PMS_P2;Temp;Humidity;BMP_temperature;BMP_pressure;BME280_temperature;BME280_humidity;BME280_pressure;Samples;Min_cycle;Max_cycle;Signal;HPM_P1;HPM_P2
2022/10/17 00:00:26;;;;;;;1.80;1.00;;;;;;;15.26;89.68;101289.50;5012481;28;20405;-67
2022/10/17 00:02:55;;;;;;;2.53;1.10;;;;;;;15.23;90.08;101284.03;5011716;28;20084;-66
2022/10/17 00:05:22;;;;;;;2.92;1.15;;;;;;;15.25;90.21;101274.34;5012729;28;20030;-66
2022/10/17 00:07:47;;;;;;;2.10;1.05;;;;;;;15.26;89.66;101264.28;5013774;28;20038;-67
2022/10/17 00:10:12;;;;;;;2.53;1.05;;;;;;;15.30;89.46;101267.81;5012694;28;20201;-67
2022/10/17 00:12:38;;;;;;;7.30;1.02;;;;;;;15.14;90.17;101272.66;5012426;28;20038;-66
2022/10/17 00:15:06;;;;;;;1.67;0.93;;;;;;;15.09;91.28;101267.59;5011755;28;20045;-66
2022/10/17 00:17:32;;;;;;;1.48;1.00;;;;;;;14.98;91.94;101286.44;5013104;28;20038;-66
2022/10/17 00:20:01;;;;;;;4.93;1.45;;;;;;;14.98;92.71;101293.81;5013271;28;20045;-67
2022/10/17 00:22:26;;;;;;;7.57;1.00;;;;;;;14.93;93.35;101300.31;5012195;28;20540;-66
2022/10/17 00:24:52;;;;;;;1.35;1.00;;;;;;;14.96;93.40;101287.97;5012239;28;20042;-67
2022/10/17 00:27:18;;;;;;;0.77;0.77;;;;;;;15.02;93.83;101284.53;5012998;28;20471;-66
2022/10/17 00:29:48;;;;;;;2.63;1.30;;;;;;;15.13;93.24;101288.19;5012012;28;20038;-66
2022/10/17 00:32:14;;;;;;;1.55;0.98;;;;;;;15.15;93.27;101299.47;5012263;28;20037;-66
2022/10/17 00:34:40;;;;;;;1.95;0.90;;;;;;;15.16;93.75;101297.50;5011672;28;20045;-66
2022/10/17 00:37:05;;;;;;;1.65;0.90;;;;;;;15.21;94.31;101294.47;5013341;28;20105;-66
2022/10/17 00:39:31;;;;;;;0.77;0.73;;;;;;;15.26;94.09;101303.06;5011722;28;20037;-66
2022/10/17 00:41:57;;;;;;;5.03;0.98;;;;;;;15.36;93.75;101307.84;5012944;28;20044;-67
2022/10/17 00:44:28;;;;;;;0.85;0.80;;;;;;;15.35;94.22;101303.56;5009852;28;20033;-66
2022/10/17 00:47:01;;;;;;;1.88;1.10;;;;;;;15.31;94.54;101307.41;5011437;28;20505;-66
2022/10/17 00:49:30;;;;;;;2.65;1.20;;;;;;;15.32;95.00;101300.81;4993203;28;20405;-64
2022/10/17 00:52:03;;;;;;;1.25;1.00;;;;;;;15.44;94.41;101289.72;5012443;28;20044;-64
2022/10/17 00:54:36;;;;;;;0.80;0.80;;;;;;;15.49;93.72;101292.09;5012109;28;20042;-65
2022/10/17 00:57:02;;;;;;;3.65;1.33;;;;;;;15.56;93.51;101305.78;4995266;28;20061;-64
2022/10/17 00:59:29;;;;;;;1.35;0.90;;;;;;;15.57;93.15;101301.88;5010718;28;20025;-64
2022/10/17 01:02:17;;;;;;;2.58;1.25;;;;;;;15.58;93.35;101298.00;5011444;28;20041;-64
2022/10/17 01:04:46;;;;;;;3.25;1.20;;;;;;;15.57;93.12;101282.09;5010458;28;20033;-65
2022/10/17 01:07:12;;;;;;;1.20;1.10;;;;;;;15.63;93.41;101291.47;4995220;28;20026;-65
2022/10/17 01:09:39;;;;;;;1.45;1.25;;;;;;;15.59;93.11;101302.28;5011957;28;20115;-64
2022/10/17 01:12:14;;;;;;;1.45;1.20;;;;;;;15.67;92.85;101300.44;5010455;28;20040;-65
2022/10/17 01:14:42;;;;;;;1.25;1.13;;;;;;;15.72;93.03;101297.38;5011742;28;20033;-64
2022/10/17 01:17:44;;;;;;;2.05;1.17;;;;;;;15.73;92.54;101307.88;5011106;28;20088;-65
2022/10/17 01:20:17;;;;;;;2.05;1.27;;;;;;;15.71;93.06;101310.19;4991423;28;20026;-64
2022/10/17 01:22:48;;;;;;;;;;;;;;;15.75;92.58;101313.72;4991964;28;20466;-65
2022/10/17 01:25:26;;;;;;;5.22;1.15;;;;;;;15.76;92.39;101309.84;4990651;28;19913;-64
2022/10/17 01:28:13;;;;;;;2.40;1.30;;;;;;;15.72;92.90;101309.03;4999697;28;20038;-64
2022/10/17 01:30:42;;;;;;;2.03;1.33;;;;;;;15.67;93.03;101309.38;4994344;28;20405;-65
2022/10/17 01:33:16;;;;;;;3.72;1.25;;;;;;;15.66;93.37;101305.06;5010856;28;20037;-65
2022/10/17 01:36:10;;;;;;;3.88;1.58;;;;;;;15.75;93.07;101296.63;5009529;28;20188;-64
2022/10/17 01:38:45;;;;;;;2.05;0.70;;;;;;;15.77;93.04;101300.56;5011051;28;20125;-65
2022/10/17 01:41:24;;;;;;;2.90;1.00;;;;;;;15.73;93.15;101305.16;5010513;28;20037;-64
2022/10/17 01:44:07;;;;;;;2.00;1.15;;;;;;;15.70;93.54;101308.59;5011225;28;20487;-65
2022/10/17 01:46:37;;;;;;;1.67;1.08;;;;;;;15.76;93.25;101303.63;5010747;28;20487;-65
2022/10/17 01:49:05;;;;;;;1.77;1.33;;;;;;;15.79;92.92;101300.97;5009277;28;20040;-64
2022/10/17 01:51:46;;;;;;;5.63;1.00;;;;;;;15.84;92.93;101310.69;5011763;28;20046;-64
2022/10/17 01:54:22;;;;;;;3.95;1.42;;;;;;;15.83;92.62;101304.47;4990509;28;20501;-65
2022/10/17 01:56:54;;;;;;;3.05;1.27;;;;;;;15.85;92.81;101306.81;4990825;28;20034;-65
2022/10/17 01:59:24;;;;;;;3.42;1.33;;;;;;;15.85;92.83;101307.59;4991120;28;20049;-65
2022/10/17 02:01:52;;;;;;;1.15;1.05;;;;;;;15.88;92.51;101295.19;4982894;28;20035;-64
2022/10/17 02:04:18;;;;;;;1.70;1.20;;;;;;;15.87;92.44;101302.56;4989888;28;20124;-64
2022/10/17 02:06:44;;;;;;;4.25;1.17;;;;;;;15.95;92.37;101292.56;4990626;28;20514;-64
2022/10/17 02:09:24;;;;;;;5.55;1.10;;;;;;;15.94;92.01;101294.50;4990154;28;20042;-64
2022/10/17 02:12:18;;;;;;;2.95;1.13;;;;;;;15.93;91.95;101292.91;4999607;28;20450;-64
2022/10/17 02:15:21;;;;;;;3.55;0.98;;;;;;;15.89;91.91;101292.09;5006063;28;20506;-64
2022/10/17 02:18:14;;;;;;;3.80;1.35;;;;;;;15.90;92.04;101274.66;5010291;28;20407;-64
2022/10/17 02:20:59;;;;;;;11.15;1.30;;;;;;;15.86;92.10;101279.28;4990574;28;20034;-64
2022/10/17 02:23:40;;;;;;;3.05;1.50;;;;;;;15.88;92.23;101278.91;4990663;28;20495;-64
2022/10/17 02:26:45;;;;;;;1.50;1.10;;;;;;;15.86;92.29;101267.63;4991137;28;20041;-64
2022/10/17 02:29:22;;;;;;;1.73;1.10;;;;;;;15.87;92.15;101264.53;5003262;28;20133;-64
2022/10/17 02:31:53;;;;;;;2.28;1.90;;;;;;;15.88;92.24;101257.97;5011195;28;20034;-64
2022/10/17 02:34:28;;;;;;;1.58;1.38;;;;;;;15.90;92.37;101257.56;5009295;28;20081;-65
2022/10/17 02:36:59;;;;;;;2.10;1.50;;;;;;;15.92;92.04;101260.69;5009508;28;20469;-65
2022/10/17 02:39:26;;;;;;;;;;;;;;;15.95;91.94;101263.44;4996660;28;20176;-64
2022/10/17 02:41:57;;;;;;;5.70;1.30;;;;;;;16.02;92.13;101257.28;5013636;28;19963;-65
2022/10/17 02:44:25;;;;;;;1.55;1.40;;;;;;;15.99;91.56;101250.66;5012365;28;20156;-64
2022/10/17 02:46:58;;;;;;;3.28;1.23;;;;;;;15.98;91.80;101262.69;5013909;28;20557;-64
2022/10/17 02:49:29;;;;;;;3.38;0.98;;;;;;;15.98;91.76;101256.47;5012284;28;20449;-65
2022/10/17 02:52:05;;;;;;;1.27;1.10;;;;;;;16.00;91.77;101252.25;5013839;28;20045;-65
2022/10/17 02:54:50;;;;;;;1.38;1.17;;;;;;;16.00;92.07;101249.53;5012459;28;20095;-65
2022/10/17 02:57:31;;;;;;;4.72;1.80;;;;;;;15.97;92.23;101241.31;5013978;28;20129;-64
2022/10/17 02:59:59;;;;;;;1.80;1.35;;;;;;;16.03;91.71;101243.31;4997154;28;20033;-65
2022/10/17 03:02:25;;;;;;;2.53;1.38;;;;;;;16.01;91.83;101231.25;5013773;28;20034;-64
2022/10/17 03:04:51;;;;;;;1.55;1.35;;;;;;;15.99;91.96;101236.28;5011982;28;20034;-65
2022/10/17 03:07:16;;;;;;;3.20;1.35;;;;;;;16.00;91.90;101235.94;5013592;28;20034;-65
2022/10/17 03:09:42;;;;;;;1.83;1.35;;;;;;;16.04;91.94;101233.25;5013716;28;20414;-64
2022/10/17 03:12:08;;;;;;;3.67;1.58;;;;;;;16.03;91.49;101220.81;5012712;28;20038;-64
2022/10/17 03:14:34;;;;;;;1.70;1.20;;;;;;;16.04;91.33;101227.81;5012728;28;20026;-65
2022/10/17 03:17:01;;;;;;;1.30;1.05;;;;;;;16.05;91.35;101215.78;4997314;28;20402;-64
2022/10/17 03:19:27;;;;;;;2.22;1.25;;;;;;;16.03;91.22;101227.03;5013659;28;20041;-64
2022/10/17 03:21:52;;;;;;;2.03;1.33;;;;;;;15.96;91.40;101226.19;5009315;28;20034;-65
2022/10/17 03:24:18;;;;;;;1.58;1.17;;;;;;;15.93;91.48;101222.28;5009268;28;20130;-67
2022/10/17 03:26:43;;;;;;;1.80;1.23;;;;;;;15.90;91.53;101220.34;4995229;28;20030;-66
2022/10/17 03:29:09;;;;;;;1.23;1.10;;;;;;;15.91;91.39;101221.13;5012774;28;20061;-67
2022/10/17 03:31:35;;;;;;;1.38;1.10;;;;;;;15.84;91.45;101219.13;5014596;28;20034;-67
2022/10/17 03:34:02;;;;;;;1.73;1.45;;;;;;;15.80;91.60;101203.94;5012158;28;20037;-66
2022/10/17 03:36:27;;;;;;;1.40;1.02;;;;;;;15.79;91.33;101208.59;5014045;28;20034;-66
2022/10/17 03:38:54;;;;;;;2.58;1.10;;;;;;;15.79;91.64;101213.25;4996149;28;20088;-67
2022/10/17 03:41:20;;;;;;;0.98;0.90;;;;;;;15.74;91.63;101205.44;4993304;28;20067;-66
2022/10/17 03:43:46;;;;;;;1.45;1.10;;;;;;;15.76;91.54;101203.13;4993362;28;20034;-66
2022/10/17 03:46:12;;;;;;;1.70;1.25;;;;;;;15.70;91.98;101208.13;5008758;28;20034;-66
2022/10/17 03:48:38;;;;;;;1.38;0.90;;;;;;;15.66;92.00;101212.00;5007927;28;20411;-66
2022/10/17 03:51:08;;;;;;;3.60;1.33;;;;;;;15.66;92.15;101215.47;5012368;28;20057;-66
2022/10/17 03:53:38;;;;;;;1.27;1.15;;;;;;;15.65;91.89;101213.13;5012830;28;20609;-66
2022/10/17 03:56:31;;;;;;;1.40;1.20;;;;;;;15.63;91.67;101208.06;5010747;28;20125;-66
2022/10/17 03:59:05;;;;;;;2.20;1.33;;;;;;;15.62;91.97;101216.59;5012631;28;20034;-66
2022/10/17 04:01:34;;;;;;;1.77;1.23;;;;;;;15.57;92.12;101204.13;5012700;28;20044;-66
2022/10/17 04:03:59;;;;;;;1.65;1.27;;;;;;;15.57;92.22;101203.34;5010575;28;20025;-67
2022/10/17 04:06:29;;;;;;;2.15;1.35;;;;;;;15.58;92.42;101207.66;5012064;28;20041;-66
2022/10/17 04:08:55;;;;;;;1.67;1.08;;;;;;;15.57;92.25;101206.06;5012568;28;20025;-66
2022/10/17 04:11:25;;;;;;;1.92;1.25;;;;;;;15.55;92.56;101205.66;5006342;23;20432;-69
2022/10/17 04:13:56;;;;;;;1.73;1.10;;;;;;;15.54;92.17;101207.63;4988257;28;20275;-69
2022/10/17 04:16:23;;;;;;;3.20;1.52;;;;;;;15.55;92.19;101206.44;4976198;28;20391;-68
2022/10/17 04:19:11;;;;;;;2.72;1.02;;;;;;;15.55;91.93;101206.44;4993620;28;20125;-69
2022/10/17 04:21:39;;;;;;;2.40;1.10;;;;;;;15.53;92.07;101200.59;4972212;28;20067;-69
2022/10/17 04:24:10;;;;;;;1.60;1.13;;;;;;;15.42;92.79;101205.16;4952885;29;20058;-69
2022/10/17 04:27:05;;;;;;;1.90;1.10;;;;;;;15.34;93.10;101198.06;4954273;28;20086;-69
2022/10/17 04:29:35;;;;;;;1.30;1.00;;;;;;;15.25;93.35;101189.47;4954151;28;20051;-69
2022/10/17 04:32:16;;;;;;;1.70;1.17;;;;;;;15.20;93.55;101201.44;4968684;28;20097;-70
2022/10/17 04:34:49;;;;;;;1.27;1.10;;;;;;;15.23;93.25;101194.50;4953258;29;20042;-69
2022/10/17 04:37:15;;;;;;;1.40;0.80;;;;;;;15.24;93.49;101191.41;4953695;29;20516;-69
2022/10/17 04:39:43;;;;;;;4.32;1.00;;;;;;;15.21;93.52;101185.94;4953405;28;20134;-69
2022/10/17 04:42:09;;;;;;;3.22;1.23;;;;;;;15.18;93.57;101192.88;4953562;28;20492;-69
2022/10/17 04:44:35;;;;;;;2.00;1.27;;;;;;;15.24;93.28;101190.59;4952906;29;20190;-69
2022/10/17 04:47:01;;;;;;;2.38;1.13;;;;;;;15.29;93.04;101182.16;4969482;28;20054;-69
2022/10/17 04:49:26;;;;;;;1.58;1.40;;;;;;;15.29;92.56;101184.84;4951732;28;20043;-69
2022/10/17 04:51:57;;;;;;;3.30;1.25;;;;;;;15.28;92.78;101180.56;4952947;28;20035;-69
2022/10/17 04:54:28;;;;;;;6.45;1.13;;;;;;;15.16;93.36;101194.41;4952652;29;20054;-69
2022/10/17 04:57:01;;;;;;;1.25;1.15;;;;;;;15.12;93.23;101178.09;4953506;29;20054;-69
2022/10/17 04:59:28;;;;;;;1.40;1.15;;;;;;;15.10;93.28;101166.03;4969219;28;20035;-69
2022/10/17 05:02:03;;;;;;;1.60;1.20;;;;;;;15.07;93.29;101174.94;4968749;28;20039;-69
2022/10/17 05:04:30;;;;;;;1.17;1.08;;;;;;;15.08;93.72;101171.06;4952454;29;20151;-69
2022/10/17 05:06:56;;;;;;;1.95;1.05;;;;;;;15.05;93.14;101169.88;4969018;28;20519;-69
2022/10/17 05:09:48;;;;;;;1.17;0.93;;;;;;;15.05;93.37;101163.66;4953516;28;20043;-69
2022/10/17 05:12:16;;;;;;;1.50;1.30;;;;;;;15.06;93.05;101166.00;4969217;28;20046;-69
2022/10/17 05:14:43;;;;;;;1.80;1.13;;;;;;;15.10;93.04;101168.75;4952261;29;20027;-69
2022/10/17 05:17:09;;;;;;;1.83;1.48;;;;;;;15.13;92.91;101182.38;4971666;28;20041;-69
2022/10/17 05:19:35;;;;;;;2.53;1.27;;;;;;;15.03;93.34;101185.75;4968991;28;20035;-69
2022/10/17 05:22:01;;;;;;;1.40;1.05;;;;;;;15.07;93.20;101183.06;4968995;28;20042;-69
2022/10/17 05:24:27;;;;;;;1.23;1.00;;;;;;;15.04;93.45;101172.97;4968115;28;20035;-68
2022/10/17 05:26:53;;;;;;;2.03;1.20;;;;;;;15.05;93.50;101171.81;4969029;28;20086;-69
2022/10/17 05:29:18;;;;;;;1.50;1.15;;;;;;;15.02;93.40;101173.31;4968911;28;20492;-69
2022/10/17 05:31:49;;;;;;;1.75;1.58;;;;;;;14.94;93.68;101168.22;4952595;28;20126;-69
2022/10/17 05:34:15;;;;;;;1.40;1.23;;;;;;;14.94;93.61;101168.22;4967949;28;20130;-68
2022/10/17 05:36:41;;;;;;;1.75;1.20;;;;;;;14.90;93.81;101180.94;4952445;28;20074;-68
2022/10/17 05:39:07;;;;;;;2.60;1.40;;;;;;;14.84;94.32;101171.56;4968912;28;20039;-68
2022/10/17 05:41:34;;;;;;;1.80;1.10;;;;;;;14.86;94.01;101180.91;4968666;28;20130;-69
2022/10/17 05:43:59;;;;;;;5.15;1.10;;;;;;;14.87;93.99;101177.03;4968115;28;20062;-68
2022/10/17 05:46:37;;;;;;;1.55;1.00;;;;;;;14.85;93.98;101171.19;4953000;28;20717;-69
2022/10/17 05:49:03;;;;;;;1.42;1.13;;;;;;;14.83;94.63;101176.22;4965675;28;20061;-69
2022/10/17 05:51:32;;;;;;;2.22;1.55;;;;;;;14.82;94.35;101174.66;4952220;29;20126;-69
2022/10/17 05:53:58;;;;;;;1.20;1.02;;;;;;;14.87;94.39;101168.91;4951688;28;20399;-69
2022/10/17 05:56:26;;;;;;;2.72;1.17;;;;;;;14.89;94.45;101172.03;4952208;29;20043;-69
2022/10/17 05:58:52;;;;;;;1.73;1.17;;;;;;;14.88;94.34;101172.41;4968644;28;20038;-69
2022/10/17 06:01:47;;;;;;;2.63;1.30;;;;;;;14.90;94.35;101170.88;4956972;28;20042;-69
2022/10/17 06:04:13;;;;;;;1.40;0.93;;;;;;;14.86;94.52;101178.19;4951461;29;20032;-69
2022/10/17 06:06:39;;;;;;;1.27;0.98;;;;;;;14.84;95.00;101179.72;4952308;28;20078;-69
2022/10/17 06:09:06;;;;;;;1.33;1.00;;;;;;;14.84;94.80;101177.00;4952283;29;20035;-69
2022/10/17 06:11:35;;;;;;;1.17;1.08;;;;;;;14.86;94.77;101175.50;4967996;28;20043;-69
2022/10/17 06:14:01;;;;;;;6.00;2.45;;;;;;;14.85;94.48;101175.84;4951758;28;20042;-68
2022/10/17 06:16:28;;;;;;;1.17;0.95;;;;;;;14.93;94.32;101180.19;4975234;28;20418;-69
2022/10/17 06:18:54;;;;;;;3.05;1.33;;;;;;;14.98;94.10;101177.94;4971307;28;20035;-69
2022/10/17 06:21:25;;;;;;;1.48;1.10;;;;;;;14.89;95.03;101173.94;4953071;28;20067;-69
2022/10/17 06:23:53;;;;;;;4.30;1.40;;;;;;;14.85;95.52;101179.34;4951548;29;20039;-69
2022/10/17 06:26:27;;;;;;;1.15;1.02;;;;;;;14.94;95.33;101179.06;4967921;28;20038;-68
2022/10/17 06:28:53;;;;;;;1.10;0.90;;;;;;;14.97;95.23;101175.59;4945019;28;20495;-69
2022/10/17 06:31:19;;;;;;;1.83;1.20;;;;;;;15.02;95.23;101184.19;4935829;29;20133;-69
2022/10/17 06:33:45;;;;;;;1.85;1.23;;;;;;;15.06;95.12;101195.09;4951801;29;20070;-68
2022/10/17 06:36:13;;;;;;;1.63;1.38;;;;;;;15.13;95.13;101185.09;4969760;28;20396;-69
2022/10/17 06:38:39;;;;;;;0.85;0.82;;;;;;;15.17;95.26;101188.63;4955232;28;20029;-68
2022/10/17 06:41:13;;;;;;;2.80;1.20;;;;;;;15.18;95.35;101190.16;4971060;28;20041;-69
2022/10/17 06:43:45;;;;;;;2.10;1.40;;;;;;;15.23;95.54;101191.78;4966370;28;20042;-68
2022/10/17 06:46:29;;;;;;;1.83;1.30;;;;;;;15.26;96.25;101191.81;4953288;29;20062;-69
2022/10/17 06:49:05;;;;;;;2.60;1.40;;;;;;;15.35;96.25;101186.06;4965947;28;20031;-69
2022/10/17 06:51:48;;;;;;;1.15;0.90;;;;;;;15.41;96.32;101181.84;4967265;28;20496;-69
2022/10/17 06:54:17;;;;;;;1.20;1.02;;;;;;;15.47;95.65;101183.09;4966721;28;20039;-69
2022/10/17 06:57:03;;;;;;;1.52;1.10;;;;;;;15.55;96.01;101179.31;4967825;28;20046;-69
2022/10/17 06:59:47;;;;;;;2.50;1.13;;;;;;;15.58;96.21;101183.97;4967707;28;20034;-69
2022/10/17 07:02:22;;;;;;;1.85;1.30;;;;;;;15.82;95.29;101182.59;4951536;29;20046;-69
2022/10/17 07:04:49;;;;;;;4.28;0.98;;;;;;;15.77;96.52;101162.03;4950765;29;20031;-69
2022/10/17 07:07:14;;;;;;;1.73;1.17;;;;;;;15.81;96.88;101165.56;4951474;29;20373;-68
2022/10/17 07:09:40;;;;;;;3.17;1.10;;;;;;;15.91;96.95;101159.38;4954508;28;20046;-69
2022/10/17 07:12:07;;;;;;;1.67;1.23;;;;;;;15.96;97.39;101175.34;4951581;29;20074;-69
2022/10/17 07:14:34;;;;;;;1.60;1.30;;;;;;;15.97;98.19;101181.56;4950583;29;20122;-69
2022/10/17 07:17:00;;;;;;;1.73;1.10;;;;;;;16.08;97.86;101204.94;4983265;28;20683;-69
2022/10/17 07:19:28;;;;;;;1.45;0.93;;;;;;;16.22;97.82;101190.63;4956216;28;20031;-69
2022/10/17 07:21:54;;;;;;;2.55;1.25;;;;;;;16.36;97.53;101181.78;4951437;29;20050;-69
2022/10/17 07:24:20;;;;;;;2.35;1.63;;;;;;;16.47;97.45;101188.88;4967449;28;20035;-69
2022/10/17 07:27:09;;;;;;;2.95;1.42;;;;;;;16.45;97.55;101172.16;4960425;28;20043;-68
2022/10/17 07:29:35;;;;;;;1.75;1.17;;;;;;;16.43;97.92;101179.91;4955044;28;20050;-69
2022/10/17 07:32:07;;;;;;;1.25;1.10;;;;;;;16.67;97.37;101179.25;4955920;28;20051;-69
2022/10/17 07:34:36;;;;;;;3.22;1.23;;;;;;;16.92;96.82;101184.78;4969761;28;20496;-69
2022/10/17 07:37:05;;;;;;;2.63;1.35;;;;;;;16.97;96.19;101198.81;4973896;28;20060;-69
2022/10/17 07:39:31;;;;;;;2.88;0.93;;;;;;;17.16;95.41;101211.28;4974064;28;20031;-69
2022/10/17 07:41:57;;;;;;;2.28;1.27;;;;;;;17.22;94.58;101220.66;4973723;28;20039;-69
2022/10/17 07:44:23;;;;;;;1.55;0.85;;;;;;;17.24;94.31;101203.91;4965730;28;20055;-69
2022/10/17 07:46:51;;;;;;;1.50;1.20;;;;;;;17.40;94.05;101193.44;4956004;29;20039;-69
2022/10/17 07:49:17;;;;;;;1.98;0.93;;;;;;;17.53;94.04;101203.63;4967788;28;20043;-68
2022/10/17 07:51:42;;;;;;;1.58;1.00;;;;;;;17.52;93.51;101212.94;4954579;29;20396;-68
2022/10/17 07:54:08;;;;;;;3.42;1.45;;;;;;;17.52;93.83;101195.81;4954713;28;20057;-68
2022/10/17 07:56:33;;;;;;;1.52;1.17;;;;;;;17.72;93.72;101221.53;4955883;28;20130;-70
2022/10/17 07:58:59;;;;;;;1.13;0.80;;;;;;;17.79;92.52;101205.94;4955971;28;20039;-68
2022/10/17 08:01:24;;;;;;;1.17;1.00;;;;;;;18.09;91.85;101212.94;4970303;28;20042;-68
2022/10/17 08:03:50;;;;;;;1.73;1.10;;;;;;;18.32;91.59;101219.53;4955664;28;20066;-69
2022/10/17 08:06:16;;;;;;;1.10;1.00;;;;;;;18.53;91.50;101221.44;4969496;28;20098;-69
2022/10/17 08:08:43;;;;;;;1.60;0.98;;;;;;;18.73;89.80;101225.28;4954381;28;20086;-69
2022/10/17 08:11:12;;;;;;;1.55;1.05;;;;;;;18.86;90.03;101208.06;4962469;28;20496;-69
2022/10/17 08:13:40;;;;;;;1.20;0.90;;;;;;;18.98;89.44;101203.31;4970408;28;20492;-69
2022/10/17 08:16:09;;;;;;;1.30;0.90;;;;;;;18.93;88.43;101207.22;4971666;28;20035;-67
2022/10/17 08:18:35;;;;;;;0.95;0.88;;;;;;;19.03;87.80;101202.94;4973788;28;20022;-68
2022/10/17 08:21:07;;;;;;;0.70;0.70;;;;;;;19.01;87.91;101197.09;4953971;28;20031;-68
2022/10/17 08:23:33;;;;;;;1.10;0.90;;;;;;;18.96;88.55;101202.94;4955356;29;20118;-70
2022/10/17 08:25:59;;;;;;;1.83;1.15;;;;;;;19.07;88.67;101196.25;4969223;28;20039;-71
2022/10/17 08:28:25;;;;;;;1.05;0.75;;;;;;;18.88;89.46;101205.72;4955093;28;20403;-68
2022/10/17 08:30:50;;;;;;;1.33;1.15;;;;;;;18.73;90.42;101195.25;4955104;28;20051;-69
2022/10/17 08:33:16;;;;;;;1.30;0.85;;;;;;;18.71;89.99;101195.66;4955239;28;20039;-69
2022/10/17 08:35:41;;;;;;;2.25;0.90;;;;;;;18.75;90.72;101185.50;4953643;28;20596;-69
2022/10/17 08:38:07;;;;;;;0.95;0.70;;;;;;;18.86;90.33;101196.34;4969824;28;20130;-69
2022/10/17 08:40:34;;;;;;;1.55;0.98;;;;;;;18.92;89.66;101195.56;4955019;28;20027;-69
2022/10/17 08:43:27;;;;;;;1.70;0.95;;;;;;;18.88;90.46;101185.81;4955236;28;20031;-70
2022/10/17 08:45:59;;;;;;;1.10;0.90;;;;;;;18.98;90.80;101182.25;4954597;29;20046;-69
2022/10/17 08:48:28;;;;;;;1.30;1.08;;;;;;;19.20;89.73;101172.00;4967485;28;20081;-69
2022/10/17 08:51:02;;;;;;;1.65;0.95;;;;;;;19.11;90.28;101180.63;4955152;28;20038;-69
2022/10/17 08:53:38;;;;;;;2.60;0.88;;;;;;;19.32;89.87;101179.69;4953828;29;20448;-71
2022/10/17 08:56:42;;;;;;;1.23;0.73;;;;;;;19.20;90.51;101174.72;4954015;28;20035;-69
2022/10/17 08:59:22;;;;;;;0.73;0.73;;;;;;;19.31;90.95;101173.47;4950658;29;20059;-70
2022/10/17 09:01:58;;;;;;;1.23;1.00;;;;;;;19.63;90.00;101168.56;4953543;29;20085;-70
2022/10/17 09:04:32;;;;;;;1.45;0.88;;;;;;;19.83;88.22;101171.53;4952437;29;20073;-70
2022/10/17 09:07:35;;;;;;;1.20;0.90;;;;;;;19.65;88.22;101174.41;4953181;29;20086;-69
2022/10/17 09:10:14;;;;;;;1.60;0.93;;;;;;;19.72;89.02;101174.34;4954193;28;20039;-70
2022/10/17 09:12:49;;;;;;;1.17;0.98;;;;;;;19.77;89.09;101184.84;4953331;29;20511;-70
2022/10/17 09:15:40;;;;;;;0.95;0.80;;;;;;;19.91;88.59;101183.94;4968425;28;20138;-70
2022/10/17 09:18:19;;;;;;;1.33;0.80;;;;;;;20.09;88.42;101184.53;4969150;28;20035;-69
2022/10/17 09:20:50;;;;;;;1.40;0.90;;;;;;;20.38;87.63;101185.81;4953870;28;20055;-69
2022/10/17 09:23:21;;;;;;;1.85;1.02;;;;;;;20.59;86.01;101185.59;4953029;29;20163;-69
2022/10/17 09:25:52;;;;;;;1.10;0.80;;;;;;;20.65;86.08;101191.38;4952011;29;20043;-69
2022/10/17 09:28:30;;;;;;;1.45;0.90;;;;;;;20.91;85.76;101193.38;4954122;28;20039;-69
2022/10/17 09:31:04;;;;;;;1.42;0.82;;;;;;;21.01;85.08;101189.75;4954036;28;20060;-70
2022/10/17 09:33:50;;;;;;;1.05;0.63;;;;;;;20.86;85.05;101196.59;4954223;29;20039;-70
2022/10/17 09:36:20;;;;;;;1.35;0.80;;;;;;;21.07;84.72;101198.28;4967778;28;20067;-70
2022/10/17 09:38:52;;;;;;;4.05;1.02;;;;;;;21.04;84.66;101194.41;4952730;29;20090;-70
2022/10/17 09:41:26;;;;;;;1.15;0.85;;;;;;;20.98;85.38;101184.31;4953802;28;20560;-70
2022/10/17 09:43:56;;;;;;;1.23;0.85;;;;;;;20.84;86.34;101193.50;4971213;28;20054;-70
2022/10/17 09:46:37;;;;;;;1.60;0.93;;;;;;;20.89;85.65;101193.03;4972861;28;20027;-70
2022/10/17 09:49:16;;;;;;;0.50;0.50;;;;;;;20.81;86.75;101199.78;4970379;28;20645;-69
2022/10/17 09:51:41;;;;;;;1.13;0.70;;;;;;;20.88;86.26;101196.97;4987753;28;20407;-71
2022/10/17 09:54:22;;;;;;;1.00;0.70;;;;;;;20.73;87.61;101198.31;4961872;28;20045;-70
2022/10/17 09:57:00;;;;;;;0.95;0.70;;;;;;;20.73;87.81;101201.03;4953813;28;20039;-70
2022/10/17 09:59:34;;;;;;;2.05;1.00;;;;;;;20.82;88.05;101203.28;4953687;28;20043;-71
2022/10/17 10:02:11;;;;;;;1.33;0.80;;;;;;;20.91;88.08;101195.34;4953345;28;20042;-70
2022/10/17 10:04:56;;;;;;;1.13;0.73;;;;;;;21.12;87.11;101195.88;4967482;28;20035;-70
2022/10/17 10:07:22;;;;;;;2.47;1.10;;;;;;;21.19;87.36;101190.31;4953490;28;20027;-69
2022/10/17 10:09:50;;;;;;;1.00;0.65;;;;;;;21.36;86.20;101202.97;4970772;23;20161;-67
2022/10/17 10:12:28;;;;;;;0.88;0.77;;;;;;;21.47;86.32;101202.78;4991171;28;20030;-65
2022/10/17 10:14:54;;;;;;;1.20;0.68;;;;;;;21.53;86.03;101198.38;4996622;28;20119;-65
2022/10/17 10:17:42;;;;;;;1.50;0.90;;;;;;;21.53;85.77;101203.88;4998203;28;20094;-65
2022/10/17 10:20:27;;;;;;;1.30;0.95;;;;;;;21.61;85.42;101210.00;4996642;28;20057;-65
2022/10/17 10:23:04;;;;;;;2.55;0.88;;;;;;;21.53;86.60;101212.88;4972467;28;20431;-65
2022/10/17 10:25:30;;;;;;;1.85;0.90;;;;;;;21.57;86.42;101210.06;4971959;28;20034;-65
2022/10/17 10:27:55;;;;;;;1.38;1.15;;;;;;;21.67;86.39;101213.84;4995246;28;20038;-65
2022/10/17 10:30:29;;;;;;;1.45;0.65;;;;;;;21.56;86.33;101208.53;4991761;28;20046;-65
2022/10/17 10:32:56;;;;;;;2.10;0.70;;;;;;;21.61;86.76;101205.31;4992095;28;20027;-65
2022/10/17 10:35:35;;;;;;;1.83;0.90;;;;;;;21.62;86.89;101211.56;4991229;28;20038;-65
2022/10/17 10:38:07;;;;;;;0.73;0.60;;;;;;;21.55;87.50;101215.19;4990518;28;20480;-65
2022/10/17 10:40:37;;;;;;;3.00;0.80;;;;;;;21.63;86.85;101202.16;4991797;28;20050;-65
2022/10/17 10:43:05;;;;;;;0.93;0.77;;;;;;;21.69;86.41;101206.75;4991818;28;20034;-65
2022/10/17 10:45:36;;;;;;;1.00;0.80;;;;;;;21.87;85.62;101207.28;4990723;28;20092;-65
2022/10/17 10:48:23;;;;;;;1.60;0.88;;;;;;;22.04;85.48;101213.63;4990588;28;20041;-65
2022/10/17 10:50:49;;;;;;;1.02;0.82;;;;;;;21.93;84.72;101210.31;4991452;28;20405;-67
2022/10/17 10:53:24;;;;;;;1.17;0.88;;;;;;;21.99;85.39;101201.16;4991495;28;20032;-65
2022/10/17 10:55:58;;;;;;;4.18;0.85;;;;;;;22.06;84.79;101209.28;4990492;28;20065;-65
2022/10/17 10:58:51;;;;;;;0.88;0.60;;;;;;;22.01;84.91;101209.00;4991743;28;20027;-65
2022/10/17 11:01:16;;;;;;;0.95;0.75;;;;;;;22.04;85.22;101205.41;4995154;28;20442;-65
2022/10/17 11:03:51;;;;;;;2.92;1.08;;;;;;;22.08;84.84;101211.59;4993588;28;20096;-65
2022/10/17 11:06:24;;;;;;;1.30;0.85;;;;;;;22.08;85.01;101223.34;4994820;28;20053;-65
2022/10/17 11:09:20;;;;;;;2.17;0.90;;;;;;;21.99;85.35;101212.13;4995412;28;20451;-65
2022/10/17 11:11:53;;;;;;;4.18;1.20;;;;;;;21.95;85.70;101230.63;4994614;28;20037;-65
2022/10/17 11:14:51;;;;;;;2.33;1.05;;;;;;;22.01;85.65;101222.72;4994657;28;20499;-65
2022/10/17 11:17:39;;;;;;;0.82;0.80;;;;;;;22.00;85.74;101226.63;4989570;28;20137;-65
2022/10/17 11:20:28;;;;;;;1.77;1.27;;;;;;;22.04;86.00;101230.88;4994538;28;20030;-65
2022/10/17 11:23:39;;;;;;;1.40;0.88;;;;;;;22.07;85.94;101229.25;4995139;28;20069;-65
2022/10/17 11:26:09;;;;;;;2.20;0.80;;;;;;;22.13;85.83;101222.09;4994337;28;20456;-65
2022/10/17 11:28:35;;;;;;;1.05;0.70;;;;;;;22.21;85.37;101220.75;4994711;28;20069;-65
2022/10/17 11:31:05;;;;;;;1.45;1.00;;;;;;;22.16;86.09;101229.50;4993362;28;20058;-65
2022/10/17 11:33:46;;;;;;;1.80;0.88;;;;;;;22.17;85.91;101236.53;4995037;28;20038;-65
2022/10/17 11:36:15;;;;;;;6.18;0.90;;;;;;;22.19;86.10;101245.09;4993926;28;20317;-65
2022/10/17 11:38:49;;;;;;;0.90;0.75;;;;;;;22.34;86.03;101238.94;4995346;28;20121;-65
2022/10/17 11:41:25;;;;;;;1.98;1.02;;;;;;;22.44;84.50;101242.69;4994467;28;20034;-65
2022/10/17 11:44:02;;;;;;;0.93;0.80;;;;;;;22.07;85.70;101238.25;4994766;28;20046;-65
2022/10/17 11:46:28;;;;;;;1.63;1.08;;;;;;;22.21;85.70;101237.22;4994058;28;20424;-65
2022/10/17 11:49:19;;;;;;;0.93;0.60;;;;;;;22.39;85.37;101227.50;4993732;28;20026;-65